sensor_id;sensor_type;location;lat;lon;timestamp;P1;durP1;ratioP1;P2;durP2;ratioP2
60714;SDS011;46564;53.096;8.246;2022-07-29T00:01:51;3.75;;;2.20;;
60714;SDS011;46564;53.096;8.246;2022-07-29T00:06:53;12.02;;;2.22;;
60714;SDS011;46564;53.096;8.246;2022-07-29T00:11:55;4.53;;;2.03;;
60714;SDS011;46564;53.096;8.246;2022-07-29T00:17:00;3.67;;;1.92;;
60714;SDS011;46564;53.096;8.246;2022-07-29T00:22:02;7.00;;;2.00;;
60714;SDS011;46564;53.096;8.246;2022-07-29T00:27:03;6.85;;;2.03;;
60714;SDS011;46564;53.096;8.246;2022-07-29T00:32:05;6.63;;;2.20;;
60714;SDS011;46564;53.096;8.246;2022-07-29T00:37:07;6.63;;;2.10;;
60714;SDS011;46564;53.096;8.246;2022-07-29T00:42:08;4.70;;;1.80;;
60714;SDS011;46564;53.096;8.246;2022-07-29T00:47:11;5.03;;;2.15;;
60714;SDS011;46564;53.096;8.246;2022-07-29T00:52:12;5.95;;;2.20;;
60714;SDS011;46564;53.096;8.246;2022-07-29T00:57:17;7.75;;;2.25;;
60714;SDS011;46564;53.096;8.246;2022-07-29T01:02:19;5.30;;;2.20;;
60714;SDS011;46564;53.096;8.246;2022-07-29T01:07:20;5.15;;;1.92;;
60714;SDS011;46564;53.096;8.246;2022-07-29T01:12:25;5.00;;;1.83;;
60714;SDS011;46564;53.096;8.246;2022-07-29T01:33:41;9.68;;;1.98;;
60714;SDS011;46564;53.096;8.246;2022-07-29T01:38:54;5.03;;;2.40;;
60714;SDS011;46564;53.096;8.246;2022-07-29T01:44:15;6.30;;;2.00;;
60714;SDS011;46564;53.096;8.246;2022-07-29T01:49:29;5.45;;;2.17;;
60714;SDS011;46564;53.096;8.246;2022-07-29T01:54:37;7.13;;;2.08;;
60714;SDS011;46564;53.096;8.246;2022-07-29T01:59:47;5.43;;;2.08;;
60714;SDS011;46564;53.096;8.246;2022-07-29T02:04:50;6.85;;;2.45;;
60714;SDS011;46564;53.096;8.246;2022-07-29T02:09:54;6.00;;;2.20;;
60714;SDS011;46564;53.096;8.246;2022-07-29T02:14:59;7.75;;;2.05;;
60714;SDS011;46564;53.096;8.246;2022-07-29T02:20:03;6.18;;;2.15;;
60714;SDS011;46564;53.096;8.246;2022-07-29T02:25:09;4.97;;;1.83;;
60714;SDS011;46564;53.096;8.246;2022-07-29T02:30:14;6.30;;;2.13;;
60714;SDS011;46564;53.096;8.246;2022-07-29T02:35:16;11.48;;;1.95;;
60714;SDS011;46564;53.096;8.246;2022-07-29T02:40:18;6.30;;;1.88;;
60714;SDS011;46564;53.096;8.246;2022-07-29T02:45:19;5.65;;;1.83;;
60714;SDS011;46564;53.096;8.246;2022-07-29T02:50:44;5.47;;;2.00;;
60714;SDS011;46564;53.096;8.246;2022-07-29T02:55:48;9.70;;;2.33;;
60714;SDS011;46564;53.096;8.246;2022-07-29T03:00:58;7.47;;;2.22;;
60714;SDS011;46564;53.096;8.246;2022-07-29T03:06:02;5.93;;;1.80;;
60714;SDS011;46564;53.096;8.246;2022-07-29T03:11:05;4.38;;;1.58;;
60714;SDS011;46564;53.096;8.246;2022-07-29T03:16:09;3.63;;;1.80;;
60714;SDS011;46564;53.096;8.246;2022-07-29T03:21:11;4.50;;;1.73;;
60714;SDS011;46564;53.096;8.246;2022-07-29T03:26:13;4.10;;;1.70;;
60714;SDS011;46564;53.096;8.246;2022-07-29T03:31:14;5.68;;;2.10;;
60714;SDS011;46564;53.096;8.246;2022-07-29T03:36:16;6.07;;;1.92;;
60714;SDS011;46564;53.096;8.246;2022-07-29T03:41:17;4.13;;;1.60;;
60714;SDS011;46564;53.096;8.246;2022-07-29T03:46:22;5.30;;;1.75;;
60714;SDS011;46564;53.096;8.246;2022-07-29T03:51:27;7.18;;;1.67;;
60714;SDS011;46564;53.096;8.246;2022-07-29T03:56:34;7.20;;;1.88;;
60714;SDS011;46564;53.096;8.246;2022-07-29T04:01:40;3.00;;;1.50;;
60714;SDS011;46564;53.096;8.246;2022-07-29T04:06:44;6.82;;;1.85;;
60714;SDS011;46564;53.096;8.246;2022-07-29T04:11:48;5.75;;;2.00;;
60714;SDS011;46564;53.096;8.246;2022-07-29T04:17:04;8.30;;;1.70;;
60714;SDS011;46564;53.096;8.246;2022-07-29T04:22:06;7.15;;;1.80;;
60714;SDS011;46564;53.096;8.246;2022-07-29T04:27:07;5.97;;;2.15;;
60714;SDS011;46564;53.096;8.246;2022-07-29T04:32:09;8.63;;;2.20;;
60714;SDS011;46564;53.096;8.246;2022-07-29T04:37:10;7.07;;;2.13;;
60714;SDS011;46564;53.096;8.246;2022-07-29T04:42:12;12.10;;;2.50;;
60714;SDS011;46564;53.096;8.246;2022-07-29T04:47:14;8.52;;;2.30;;
60714;SDS011;46564;53.096;8.246;2022-07-29T04:52:15;7.38;;;2.15;;
60714;SDS011;46564;53.096;8.246;2022-07-29T04:57:17;11.18;;;2.05;;
60714;SDS011;46564;53.096;8.246;2022-07-29T05:02:18;7.00;;;2.13;;
60714;SDS011;46564;53.096;8.246;2022-07-29T05:07:20;4.57;;;2.35;;
60714;SDS011;46564;53.096;8.246;2022-07-29T05:12:22;3.70;;;1.90;;
60714;SDS011;46564;53.096;8.246;2022-07-29T05:17:25;7.40;;;1.98;;
60714;SDS011;46564;53.096;8.246;2022-07-29T05:22:26;4.40;;;1.73;;
60714;SDS011;46564;53.096;8.246;2022-07-29T05:27:28;6.50;;;1.95;;
60714;SDS011;46564;53.096;8.246;2022-07-29T05:32:29;9.77;;;2.08;;
60714;SDS011;46564;53.096;8.246;2022-07-29T05:37:31;4.90;;;1.80;;
60714;SDS011;46564;53.096;8.246;2022-07-29T05:42:32;6.13;;;2.20;;
60714;SDS011;46564;53.096;8.246;2022-07-29T05:47:35;6.30;;;1.58;;
60714;SDS011;46564;53.096;8.246;2022-07-29T05:52:36;7.07;;;1.90;;
60714;SDS011;46564;53.096;8.246;2022-07-29T05:57:38;6.40;;;1.88;;
60714;SDS011;46564;53.096;8.246;2022-07-29T06:02:39;7.35;;;2.03;;
60714;SDS011;46564;53.096;8.246;2022-07-29T06:07:41;4.57;;;2.08;;
60714;SDS011;46564;53.096;8.246;2022-07-29T06:12:52;8.10;;;2.30;;
60714;SDS011;46564;53.096;8.246;2022-07-29T06:17:53;7.00;;;1.95;;
60714;SDS011;46564;53.096;8.246;2022-07-29T06:23:02;7.90;;;2.17;;
60714;SDS011;46564;53.096;8.246;2022-07-29T06:28:05;7.22;;;2.13;;
60714;SDS011;46564;53.096;8.246;2022-07-29T06:33:07;6.18;;;2.10;;
60714;SDS011;46564;53.096;8.246;2022-07-29T06:38:09;5.22;;;2.00;;
60714;SDS011;46564;53.096;8.246;2022-07-29T06:43:35;8.88;;;1.92;;
60714;SDS011;46564;53.096;8.246;2022-07-29T06:53:53;10.70;;;2.30;;
60714;SDS011;46564;53.096;8.246;2022-07-29T06:59:03;6.22;;;2.22;;
60714;SDS011;46564;53.096;8.246;2022-07-29T07:04:05;12.00;;;2.38;;
60714;SDS011;46564;53.096;8.246;2022-07-29T07:09:09;8.15;;;2.63;;
60714;SDS011;46564;53.096;8.246;2022-07-29T07:14:11;8.65;;;2.63;;
60714;SDS011;46564;53.096;8.246;2022-07-29T07:19:12;7.65;;;2.42;;
60714;SDS011;46564;53.096;8.246;2022-07-29T07:24:14;9.55;;;2.40;;
60714;SDS011;46564;53.096;8.246;2022-07-29T07:29:16;12.90;;;2.55;;
60714;SDS011;46564;53.096;8.246;2022-07-29T07:37:05;4.53;;;1.88;;
60714;SDS011;46564;53.096;8.246;2022-07-29T07:42:07;6.00;;;2.33;;
60714;SDS011;46564;53.096;8.246;2022-07-29T07:47:15;10.18;;;2.92;;
60714;SDS011;46564;53.096;8.246;2022-07-29T07:52:22;7.88;;;2.03;;
60714;SDS011;46564;53.096;8.246;2022-07-29T07:57:24;10.00;;;2.40;;
60714;SDS011;46564;53.096;8.246;2022-07-29T08:02:25;10.60;;;2.60;;
60714;SDS011;46564;53.096;8.246;2022-07-29T08:07:27;6.28;;;2.20;;
60714;SDS011;46564;53.096;8.246;2022-07-29T08:12:30;7.57;;;2.70;;
60714;SDS011;46564;53.096;8.246;2022-07-29T08:17:32;4.90;;;2.10;;
60714;SDS011;46564;53.096;8.246;2022-07-29T08:22:35;8.68;;;2.10;;
60714;SDS011;46564;53.096;8.246;2022-07-29T08:27:37;8.85;;;2.17;;
60714;SDS011;46564;53.096;8.246;2022-07-29T08:32:44;10.95;;;2.60;;
60714;SDS011;46564;53.096;8.246;2022-07-29T08:37:55;9.50;;;2.05;;
60714;SDS011;46564;53.096;8.246;2022-07-29T08:42:59;12.00;;;2.13;;
60714;SDS011;46564;53.096;8.246;2022-07-29T08:48:06;11.20;;;2.22;;
60714;SDS011;46564;53.096;8.246;2022-07-29T08:53:11;7.82;;;2.13;;
60714;SDS011;46564;53.096;8.246;2022-07-29T08:58:14;10.20;;;1.92;;
60714;SDS011;46564;53.096;8.246;2022-07-29T09:03:19;33.92;;;2.30;;
60714;SDS011;46564;53.096;8.246;2022-07-29T09:08:24;6.53;;;2.28;;
60714;SDS011;46564;53.096;8.246;2022-07-29T09:13:27;8.18;;;1.67;;
60714;SDS011;46564;53.096;8.246;2022-07-29T09:18:36;7.68;;;1.77;;
60714;SDS011;46564;53.096;8.246;2022-07-29T09:23:59;7.35;;;2.15;;
60714;SDS011;46564;53.096;8.246;2022-07-29T09:29:13;9.23;;;1.85;;
60714;SDS011;46564;53.096;8.246;2022-07-29T09:34:17;15.32;;;4.25;;
60714;SDS011;46564;53.096;8.246;2022-07-29T09:39:30;5.18;;;1.90;;
60714;SDS011;46564;53.096;8.246;2022-07-29T09:44:49;5.15;;;1.83;;
60714;SDS011;46564;53.096;8.246;2022-07-29T09:49:59;6.82;;;2.00;;
60714;SDS011;46564;53.096;8.246;2022-07-29T09:55:21;7.80;;;2.17;;
60714;SDS011;46564;53.096;8.246;2022-07-29T10:00:32;7.05;;;2.10;;
60714;SDS011;46564;53.096;8.246;2022-07-29T10:06:34;11.65;;;2.50;;
60714;SDS011;46564;53.096;8.246;2022-07-29T10:12:02;11.73;;;2.00;;
60714;SDS011;46564;53.096;8.246;2022-07-29T10:17:18;7.38;;;2.35;;
60714;SDS011;46564;53.096;8.246;2022-07-29T10:22:27;10.10;;;2.70;;
60714;SDS011;46564;53.096;8.246;2022-07-29T10:27:52;11.23;;;3.60;;
60714;SDS011;46564;53.096;8.246;2022-07-29T10:43:19;8.30;;;2.55;;
60714;SDS011;46564;53.096;8.246;2022-07-29T10:48:25;8.10;;;2.25;;
60714;SDS011;46564;53.096;8.246;2022-07-29T11:05:10;7.25;;;2.20;;
60714;SDS011;46564;53.096;8.246;2022-07-29T11:15:17;9.38;;;2.33;;
60714;SDS011;46564;53.096;8.246;2022-07-29T11:37:23;6.82;;;2.22;;
60714;SDS011;46564;53.096;8.246;2022-07-29T11:47:57;7.82;;;2.10;;
60714;SDS011;46564;53.096;8.246;2022-07-29T11:53:24;8.95;;;1.98;;
60714;SDS011;46564;53.096;8.246;2022-07-29T11:58:32;8.77;;;2.13;;
60714;SDS011;46564;53.096;8.246;2022-07-29T12:03:34;12.52;;;2.55;;
60714;SDS011;46564;53.096;8.246;2022-07-29T12:08:40;7.47;;;2.15;;
60714;SDS011;46564;53.096;8.246;2022-07-29T12:13:48;6.85;;;1.65;;
60714;SDS011;46564;53.096;8.246;2022-07-29T12:18:57;4.03;;;1.80;;
60714;SDS011;46564;53.096;8.246;2022-07-29T12:24:00;10.18;;;2.03;;
60714;SDS011;46564;53.096;8.246;2022-07-29T12:29:14;9.20;;;2.08;;
60714;SDS011;46564;53.096;8.246;2022-07-29T12:34:35;6.72;;;1.83;;
60714;SDS011;46564;53.096;8.246;2022-07-29T12:39:37;11.85;;;1.73;;
60714;SDS011;46564;53.096;8.246;2022-07-29T12:44:43;5.18;;;1.70;;
60714;SDS011;46564;53.096;8.246;2022-07-29T12:49:46;9.38;;;1.70;;
60714;SDS011;46564;53.096;8.246;2022-07-29T12:54:49;5.53;;;1.73;;
60714;SDS011;46564;53.096;8.246;2022-07-29T13:00:08;7.32;;;1.75;;
60714;SDS011;46564;53.096;8.246;2022-07-29T13:05:14;6.03;;;1.60;;
60714;SDS011;46564;53.096;8.246;2022-07-29T13:10:17;7.25;;;2.00;;
60714;SDS011;46564;53.096;8.246;2022-07-29T13:15:25;8.45;;;1.50;;
60714;SDS011;46564;53.096;8.246;2022-07-29T13:20:27;7.93;;;1.70;;
60714;SDS011;46564;53.096;8.246;2022-07-29T13:25:35;8.20;;;1.55;;
60714;SDS011;46564;53.096;8.246;2022-07-29T13:30:42;4.60;;;1.27;;
60714;SDS011;46564;53.096;8.246;2022-07-29T13:35:45;6.15;;;1.60;;
60714;SDS011;46564;53.096;8.246;2022-07-29T13:40:46;6.95;;;1.40;;
60714;SDS011;46564;53.096;8.246;2022-07-29T13:45:48;5.15;;;1.42;;
60714;SDS011;46564;53.096;8.246;2022-07-29T13:50:50;2.75;;;1.20;;
60714;SDS011;46564;53.096;8.246;2022-07-29T13:55:52;8.68;;;1.40;;
60714;SDS011;46564;53.096;8.246;2022-07-29T14:00:55;3.63;;;1.35;;
60714;SDS011;46564;53.096;8.246;2022-07-29T14:05:58;5.13;;;1.67;;
60714;SDS011;46564;53.096;8.246;2022-07-29T14:11:01;7.97;;;1.60;;
60714;SDS011;46564;53.096;8.246;2022-07-29T14:16:03;5.90;;;1.60;;
60714;SDS011;46564;53.096;8.246;2022-07-29T14:21:05;5.63;;;1.38;;
60714;SDS011;46564;53.096;8.246;2022-07-29T14:26:07;6.50;;;1.60;;
60714;SDS011;46564;53.096;8.246;2022-07-29T14:31:13;7.00;;;1.92;;
60714;SDS011;46564;53.096;8.246;2022-07-29T14:36:15;6.07;;;1.67;;
60714;SDS011;46564;53.096;8.246;2022-07-29T14:41:17;4.22;;;1.50;;
60714;SDS011;46564;53.096;8.246;2022-07-29T14:46:19;7.72;;;1.98;;
60714;SDS011;46564;53.096;8.246;2022-07-29T14:51:21;7.95;;;1.77;;
60714;SDS011;46564;53.096;8.246;2022-07-29T14:56:22;5.65;;;1.55;;
60714;SDS011;46564;53.096;8.246;2022-07-29T15:01:38;6.07;;;1.80;;
60714;SDS011;46564;53.096;8.246;2022-07-29T15:06:40;5.55;;;2.13;;
60714;SDS011;46564;53.096;8.246;2022-07-29T15:11:42;6.53;;;1.90;;
60714;SDS011;46564;53.096;8.246;2022-07-29T15:16:44;7.00;;;2.08;;
60714;SDS011;46564;53.096;8.246;2022-07-29T15:21:48;6.13;;;1.70;;
60714;SDS011;46564;53.096;8.246;2022-07-29T15:26:51;10.52;;;3.38;;
60714;SDS011;46564;53.096;8.246;2022-07-29T15:31:53;10.75;;;3.38;;
60714;SDS011;46564;53.096;8.246;2022-07-29T15:36:55;9.13;;;2.30;;
60714;SDS011;46564;53.096;8.246;2022-07-29T15:41:57;5.60;;;1.80;;
60714;SDS011;46564;53.096;8.246;2022-07-29T15:47:01;14.20;;;2.50;;
60714;SDS011;46564;53.096;8.246;2022-07-29T15:52:09;13.52;;;5.05;;
60714;SDS011;46564;53.096;8.246;2022-07-29T15:57:12;5.88;;;2.78;;
60714;SDS011;46564;53.096;8.246;2022-07-29T16:02:14;4.95;;;2.20;;
60714;SDS011;46564;53.096;8.246;2022-07-29T16:07:16;5.78;;;1.95;;
60714;SDS011;46564;53.096;8.246;2022-07-29T16:12:18;7.00;;;1.80;;
60714;SDS011;46564;53.096;8.246;2022-07-29T16:17:20;9.88;;;2.30;;
60714;SDS011;46564;53.096;8.246;2022-07-29T16:22:22;5.97;;;2.10;;
60714;SDS011;46564;53.096;8.246;2022-07-29T16:27:23;10.77;;;2.17;;
60714;SDS011;46564;53.096;8.246;2022-07-29T16:32:37;14.15;;;2.17;;
60714;SDS011;46564;53.096;8.246;2022-07-29T16:37:40;6.28;;;2.10;;
60714;SDS011;46564;53.096;8.246;2022-07-29T16:42:41;8.65;;;2.15;;
60714;SDS011;46564;53.096;8.246;2022-07-29T16:47:47;7.68;;;3.03;;
60714;SDS011;46564;53.096;8.246;2022-07-29T16:52:50;9.25;;;2.00;;
60714;SDS011;46564;53.096;8.246;2022-07-29T16:57:52;9.45;;;2.38;;
60714;SDS011;46564;53.096;8.246;2022-07-29T17:02:54;5.78;;;2.15;;
60714;SDS011;46564;53.096;8.246;2022-07-29T17:07:56;4.72;;;2.05;;
60714;SDS011;46564;53.096;8.246;2022-07-29T17:12:59;5.90;;;2.00;;
60714;SDS011;46564;53.096;8.246;2022-07-29T17:18:01;8.07;;;2.20;;
60714;SDS011;46564;53.096;8.246;2022-07-29T17:23:13;9.32;;;2.15;;
60714;SDS011;46564;53.096;8.246;2022-07-29T17:28:14;8.85;;;2.10;;
60714;SDS011;46564;53.096;8.246;2022-07-29T17:33:16;4.53;;;2.35;;
60714;SDS011;46564;53.096;8.246;2022-07-29T17:38:18;4.57;;;1.92;;
60714;SDS011;46564;53.096;8.246;2022-07-29T17:43:21;11.10;;;2.78;;
60714;SDS011;46564;53.096;8.246;2022-07-29T17:48:25;4.78;;;2.00;;
60714;SDS011;46564;53.096;8.246;2022-07-29T17:53:26;6.07;;;1.90;;
60714;SDS011;46564;53.096;8.246;2022-07-29T17:58:28;7.85;;;2.08;;
60714;SDS011;46564;53.096;8.246;2022-07-29T18:03:31;7.45;;;3.05;;
60714;SDS011;46564;53.096;8.246;2022-07-29T18:08:33;7.68;;;2.95;;
60714;SDS011;46564;53.096;8.246;2022-07-29T18:13:35;6.82;;;2.50;;
60714;SDS011;46564;53.096;8.246;2022-07-29T18:18:37;6.80;;;2.30;;
60714;SDS011;46564;53.096;8.246;2022-07-29T18:23:39;10.85;;;2.75;;
60714;SDS011;46564;53.096;8.246;2022-07-29T18:28:40;10.35;;;2.83;;
60714;SDS011;46564;53.096;8.246;2022-07-29T18:33:42;7.15;;;3.03;;
60714;SDS011;46564;53.096;8.246;2022-07-29T18:38:44;7.97;;;3.20;;
60714;SDS011;46564;53.096;8.246;2022-07-29T18:43:46;9.13;;;2.50;;
60714;SDS011;46564;53.096;8.246;2022-07-29T18:48:48;5.82;;;2.70;;
60714;SDS011;46564;53.096;8.246;2022-07-29T18:53:50;8.50;;;2.88;;
60714;SDS011;46564;53.096;8.246;2022-07-29T18:58:52;7.93;;;2.47;;
60714;SDS011;46564;53.096;8.246;2022-07-29T19:03:55;7.10;;;2.50;;
60714;SDS011;46564;53.096;8.246;2022-07-29T19:08:56;6.68;;;2.65;;
60714;SDS011;46564;53.096;8.246;2022-07-29T19:13:58;6.90;;;3.15;;
60714;SDS011;46564;53.096;8.246;2022-07-29T19:19:00;6.50;;;2.10;;
60714;SDS011;46564;53.096;8.246;2022-07-29T19:24:02;5.03;;;1.88;;
60714;SDS011;46564;53.096;8.246;2022-07-29T19:29:08;16.67;;;3.13;;
60714;SDS011;46564;53.096;8.246;2022-07-29T19:34:10;12.50;;;3.10;;
60714;SDS011;46564;53.096;8.246;2022-07-29T19:39:12;10.95;;;2.78;;
60714;SDS011;46564;53.096;8.246;2022-07-29T19:44:15;6.78;;;2.13;;
60714;SDS011;46564;53.096;8.246;2022-07-29T19:49:17;10.77;;;2.38;;
60714;SDS011;46564;53.096;8.246;2022-07-29T19:54:19;6.57;;;2.33;;
60714;SDS011;46564;53.096;8.246;2022-07-29T19:59:20;9.88;;;2.42;;
60714;SDS011;46564;53.096;8.246;2022-07-29T20:04:24;8.63;;;2.67;;
60714;SDS011;46564;53.096;8.246;2022-07-29T20:09:26;8.60;;;2.40;;
60714;SDS011;46564;53.096;8.246;2022-07-29T20:14:28;9.63;;;2.85;;
60714;SDS011;46564;53.096;8.246;2022-07-29T20:19:30;8.38;;;2.90;;
60714;SDS011;46564;53.096;8.246;2022-07-29T20:24:33;5.97;;;2.60;;
60714;SDS011;46564;53.096;8.246;2022-07-29T20:29:35;8.10;;;3.17;;
60714;SDS011;46564;53.096;8.246;2022-07-29T20:34:38;7.22;;;2.88;;
60714;SDS011;46564;53.096;8.246;2022-07-29T20:39:41;7.03;;;3.33;;
60714;SDS011;46564;53.096;8.246;2022-07-29T20:44:43;5.68;;;2.88;;
60714;SDS011;46564;53.096;8.246;2022-07-29T20:49:44;6.22;;;2.70;;
60714;SDS011;46564;53.096;8.246;2022-07-29T20:54:46;6.57;;;3.08;;
60714;SDS011;46564;53.096;8.246;2022-07-29T20:59:49;6.25;;;2.60;;
60714;SDS011;46564;53.096;8.246;2022-07-29T21:04:50;9.93;;;2.95;;
60714;SDS011;46564;53.096;8.246;2022-07-29T21:09:52;7.93;;;3.30;;
60714;SDS011;46564;53.096;8.246;2022-07-29T21:14:54;6.78;;;2.90;;
60714;SDS011;46564;53.096;8.246;2022-07-29T21:19:56;8.73;;;3.13;;
60714;SDS011;46564;53.096;8.246;2022-07-29T21:24:58;10.13;;;3.40;;
60714;SDS011;46564;53.096;8.246;2022-07-29T21:29:59;8.98;;;3.08;;
60714;SDS011;46564;53.096;8.246;2022-07-29T21:35:01;5.72;;;3.30;;
60714;SDS011;46564;53.096;8.246;2022-07-29T21:40:15;8.23;;;3.17;;
60714;SDS011;46564;53.096;8.246;2022-07-29T21:45:17;7.63;;;3.17;;
60714;SDS011;46564;53.096;8.246;2022-07-29T21:50:18;8.30;;;3.88;;
60714;SDS011;46564;53.096;8.246;2022-07-29T21:55:20;7.88;;;3.60;;
60714;SDS011;46564;53.096;8.246;2022-07-29T22:00:24;6.82;;;3.55;;
60714;SDS011;46564;53.096;8.246;2022-07-29T22:05:27;8.70;;;3.53;;
60714;SDS011;46564;53.096;8.246;2022-07-29T22:10:29;5.88;;;3.20;;
60714;SDS011;46564;53.096;8.246;2022-07-29T22:15:31;7.20;;;3.08;;
60714;SDS011;46564;53.096;8.246;2022-07-29T22:20:33;8.15;;;3.40;;
60714;SDS011;46564;53.096;8.246;2022-07-29T22:25:35;7.97;;;3.10;;
60714;SDS011;46564;53.096;8.246;2022-07-29T22:30:37;7.55;;;4.18;;
60714;SDS011;46564;53.096;8.246;2022-07-29T22:35:39;9.20;;;3.58;;
60714;SDS011;46564;53.096;8.246;2022-07-29T22:40:40;8.73;;;3.25;;
60714;SDS011;46564;53.096;8.246;2022-07-29T22:45:44;8.73;;;3.70;;
60714;SDS011;46564;53.096;8.246;2022-07-29T22:50:45;8.32;;;3.78;;
60714;SDS011;46564;53.096;8.246;2022-07-29T22:55:47;9.27;;;3.90;;
60714;SDS011;46564;53.096;8.246;2022-07-29T23:00:49;11.23;;;4.25;;
60714;SDS011;46564;53.096;8.246;2022-07-29T23:05:51;11.73;;;4.13;;
60714;SDS011;46564;53.096;8.246;2022-07-29T23:10:53;8.23;;;3.65;;
60714;SDS011;46564;53.096;8.246;2022-07-29T23:15:55;7.03;;;3.13;;
60714;SDS011;46564;53.096;8.246;2022-07-29T23:20:56;6.00;;;3.33;;
60714;SDS011;46564;53.096;8.246;2022-07-29T23:25:59;6.65;;;3.08;;
60714;SDS011;46564;53.096;8.246;2022-07-29T23:31:00;8.23;;;3.75;;
60714;SDS011;46564;53.096;8.246;2022-07-29T23:36:02;8.05;;;3.63;;
60714;SDS011;46564;53.096;8.246;2022-07-29T23:41:04;8.73;;;3.92;;
60714;SDS011;46564;53.096;8.246;2022-07-29T23:46:09;12.48;;;3.88;;
60714;SDS011;46564;53.096;8.246;2022-07-29T23:51:12;11.20;;;3.75;;
60714;SDS011;46564;53.096;8.246;2022-07-29T23:56:13;9.48;;;3.58;;
